createdAt,value
2022-08-26T00:03:58.839Z,5.25
2022-08-26T00:08:00.884Z,6.97
2022-08-26T00:12:03.467Z,6.78
2022-08-26T00:16:07.468Z,5.65
2022-08-26T00:20:11.729Z,4.88
2022-08-26T00:24:13.878Z,7.30
2022-08-26T00:28:16.211Z,4.68
2022-08-26T00:32:20.967Z,5.22
2022-08-26T00:36:23.080Z,4.72
2022-08-26T00:40:35.459Z,6.53
2022-08-26T00:44:37.854Z,6.32
2022-08-26T00:48:44.038Z,4.75
2022-08-26T00:52:48.253Z,6.38
2022-08-26T00:56:56.902Z,5.88
2022-08-26T01:00:58.886Z,4.97
2022-08-26T01:05:03.405Z,4.78
2022-08-26T01:09:06.350Z,5.00
2022-08-26T01:13:11.380Z,5.13
2022-08-26T01:17:13.425Z,5.90
2022-08-26T01:21:46.871Z,5.25
2022-08-26T01:25:56.682Z,6.43
2022-08-26T01:30:00.537Z,4.63
2022-08-26T01:34:11.137Z,4.40
2022-08-26T01:38:13.844Z,5.20
2022-08-26T01:42:18.299Z,7.53
2022-08-26T01:46:22.709Z,6.90
2022-08-26T01:50:33.499Z,4.78
2022-08-26T01:54:36.127Z,5.78
2022-08-26T01:58:40.203Z,6.25
2022-08-26T02:02:45.171Z,8.02
2022-08-26T02:06:48.513Z,5.65
2022-08-26T02:10:50.518Z,6.95
2022-08-26T02:15:00.518Z,5.07
2022-08-26T02:19:04.201Z,6.15
2022-08-26T02:23:07.388Z,5.60
2022-08-26T02:27:09.537Z,6.38
2022-08-26T02:31:11.565Z,5.53
2022-08-26T02:35:20.006Z,7.78
2022-08-26T02:39:22.532Z,4.97
2022-08-26T02:43:32.839Z,5.40
2022-08-26T02:47:35.239Z,5.03
2022-08-26T02:51:37.286Z,4.97
2022-08-26T02:55:40.442Z,4.43
2022-08-26T02:59:42.422Z,4.57
2022-08-26T03:03:44.333Z,4.20
2022-08-26T03:07:46.724Z,4.80
2022-08-26T03:11:48.798Z,4.60
2022-08-26T03:15:51.147Z,4.85
2022-08-26T03:19:57.036Z,5.00
2022-08-26T03:23:59.754Z,5.63
2022-08-26T03:28:02.488Z,7.57
2022-08-26T03:32:04.705Z,4.57
2022-08-26T03:36:07.824Z,7.97
2022-08-26T03:40:11.628Z,5.28
2022-08-26T03:44:14.516Z,5.35
2022-08-26T03:48:16.530Z,4.55
2022-08-26T03:52:18.462Z,5.88
2022-08-26T03:56:20.491Z,4.65
2022-08-26T04:00:22.770Z,4.30
2022-08-26T04:04:26.362Z,4.28
2022-08-26T04:08:28.603Z,4.55
2022-08-26T04:12:30.617Z,4.32
2022-08-26T04:16:32.586Z,5.43
2022-08-26T04:20:34.620Z,5.05
2022-08-26T04:24:39.564Z,4.07
2022-08-26T04:28:41.489Z,5.43
2022-08-26T04:32:43.462Z,7.80
2022-08-26T04:36:45.504Z,4.47
2022-08-26T04:40:47.453Z,4.88
2022-08-26T04:44:49.975Z,4.72
2022-08-26T04:48:53.508Z,4.53
2022-08-26T04:52:55.775Z,3.72
2022-08-26T04:56:57.699Z,5.60
2022-08-26T05:01:00.369Z,5.22
2022-08-26T05:05:02.820Z,11.90
2022-08-26T05:09:05.876Z,6.78
2022-08-26T05:13:10.969Z,8.57
2022-08-26T05:17:15.090Z,5.03
2022-08-26T05:21:22.694Z,6.13
2022-08-26T05:25:24.678Z,12.05
2022-08-26T05:29:29.505Z,7.68
2022-08-26T05:33:31.421Z,8.30
2022-08-26T05:37:33.342Z,17.20
2022-08-26T05:41:38.657Z,18.20
2022-08-26T05:45:46.299Z,9.05
2022-08-26T05:49:49.272Z,6.72
2022-08-26T05:53:55.062Z,9.07
2022-08-26T05:57:57.364Z,7.63
2022-08-26T06:01:59.782Z,5.90
2022-08-26T06:06:08.433Z,6.50
2022-08-26T06:10:32.630Z,8.80
2022-08-26T06:14:36.182Z,7.43
2022-08-26T06:18:41.753Z,10.40
2022-08-26T06:23:02.222Z,21.17
2022-08-26T06:27:09.647Z,12.60
2022-08-26T06:31:14.212Z,16.92
2022-08-26T06:35:16.296Z,10.07
2022-08-26T06:39:19.052Z,7.03
2022-08-26T06:43:25.074Z,14.57
2022-08-26T06:47:27.268Z,13.38
2022-08-26T06:51:34.253Z,10.35
2022-08-26T06:55:41.578Z,13.85
2022-08-26T06:59:44.101Z,12.57
2022-08-26T07:03:47.663Z,12.43
2022-08-26T07:07:50.081Z,6.35
2022-08-26T07:11:53.335Z,16.35
2022-08-26T07:15:58.052Z,8.70
2022-08-26T07:20:07.924Z,14.95
2022-08-26T07:24:11.363Z,15.75
2022-08-26T07:28:13.310Z,11.40
2022-08-26T07:32:17.141Z,8.70
2022-08-26T07:36:21.199Z,12.50
2022-08-26T07:40:23.744Z,4.93
2022-08-26T07:44:27.255Z,17.00
2022-08-26T07:48:29.272Z,10.25
2022-08-26T07:52:32.455Z,9.45
2022-08-26T07:56:35.690Z,6.80
2022-08-26T08:00:38.873Z,14.65
2022-08-26T08:04:40.790Z,12.30
2022-08-26T08:08:42.956Z,7.15
2022-08-26T08:12:45.533Z,12.48
2022-08-26T08:16:47.672Z,6.47
2022-08-26T08:20:59.401Z,6.20
2022-08-26T08:25:08.174Z,5.32
2022-08-26T08:29:12.617Z,7.47
2022-08-26T08:33:14.532Z,5.32
2022-08-26T08:37:16.863Z,3.20
2022-08-26T08:41:31.900Z,8.27
2022-08-26T08:45:44.999Z,4.85
2022-08-26T08:49:49.447Z,13.85
2022-08-26T08:53:54.572Z,7.55
2022-08-26T08:58:08.097Z,4.73
2022-08-26T09:02:33.422Z,5.95
2022-08-26T09:06:36.140Z,3.10
2022-08-26T09:10:52.845Z,2.65
2022-08-26T09:15:03.928Z,8.80
2022-08-26T09:19:19.313Z,4.05
2022-08-26T09:23:21.770Z,12.88
2022-08-26T09:27:50.465Z,13.77
2022-08-26T09:32:13.591Z,5.05
2022-08-26T09:36:39.353Z,15.85
2022-08-26T09:41:02.079Z,14.55
2022-08-26T09:45:08.517Z,6.10
2022-08-26T09:49:39.531Z,6.35
2022-08-26T09:54:01.293Z,3.78
2022-08-26T09:58:07.873Z,1.90
2022-08-26T10:02:32.911Z,2.45
2022-08-26T10:06:42.671Z,4.30
2022-08-26T10:10:45.476Z,3.05
2022-08-26T10:14:55.227Z,2.50
2022-08-26T10:19:09.793Z,4.13
2022-08-26T10:23:18.081Z,2.58
2022-08-26T10:27:52.748Z,2.42
2022-08-26T10:32:03.430Z,2.42
2022-08-26T10:36:36.425Z,2.83
2022-08-26T10:40:50.216Z,2.78
2022-08-26T10:44:58.522Z,2.22
2022-08-26T10:49:06.567Z,2.20
2022-08-26T10:53:17.122Z,3.63
2022-08-26T10:57:46.036Z,2.20
2022-08-26T11:02:26.572Z,2.55
2022-08-26T11:06:31.392Z,2.67
2022-08-26T11:10:42.425Z,2.20
2022-08-26T11:14:53.241Z,2.65
2022-08-26T11:18:58.127Z,2.03
2022-08-26T11:23:12.781Z,2.08
2022-08-26T11:27:26.560Z,2.72
2022-08-26T11:31:30.370Z,3.85
2022-08-26T11:35:42.479Z,2.70
2022-08-26T11:39:55.378Z,1.95
2022-08-26T11:43:59.795Z,2.53
2022-08-26T11:48:16.781Z,2.67
2022-08-26T11:52:22.148Z,3.67
2022-08-26T11:56:32.460Z,1.73
2022-08-26T12:00:50.201Z,2.65
2022-08-26T12:04:54.055Z,2.83
2022-08-26T12:09:02.261Z,3.22
2022-08-26T12:13:06.299Z,2.58
2022-08-26T12:17:26.023Z,1.90
2022-08-26T12:21:34.604Z,2.30
2022-08-26T12:25:37.451Z,3.15
2022-08-26T12:29:39.579Z,1.90
2022-08-26T12:33:41.570Z,2.30
2022-08-26T12:37:47.791Z,2.38
2022-08-26T12:41:55.848Z,2.65
2022-08-26T12:46:04.661Z,2.13
2022-08-26T12:50:25.564Z,2.58
2022-08-26T12:54:47.466Z,2.22
2022-08-26T12:59:27.988Z,2.30
2022-08-26T13:03:37.471Z,2.00
2022-08-26T13:07:40.941Z,3.05
2022-08-26T13:11:42.912Z,2.85
2022-08-26T13:15:44.831Z,2.15
2022-08-26T13:19:46.972Z,2.00
2022-08-26T13:23:50.067Z,2.05
2022-08-26T13:27:52.022Z,1.92
2022-08-26T13:31:54.268Z,3.25
2022-08-26T13:35:56.281Z,1.98
2022-08-26T13:39:59.105Z,2.45
2022-08-26T13:44:01.117Z,2.15
2022-08-26T13:48:04.610Z,1.90
2022-08-26T13:52:06.602Z,2.22
2022-08-26T13:56:11.082Z,2.47
2022-08-26T14:00:14.210Z,3.92
2022-08-26T14:04:16.112Z,2.47
2022-08-26T14:08:25.550Z,3.20
2022-08-26T14:12:27.474Z,2.35
2022-08-26T14:16:33.547Z,3.88
2022-08-26T14:20:37.036Z,2.50
2022-08-26T14:24:39.189Z,2.67
2022-08-26T14:28:41.831Z,3.45
2022-08-26T14:32:49.265Z,3.63
2022-08-26T14:36:51.155Z,4.07
2022-08-26T14:40:53.056Z,2.70
2022-08-26T14:44:58.375Z,2.55
2022-08-26T14:49:03.524Z,2.75
2022-08-26T14:53:24.674Z,2.65
2022-08-26T14:57:26.616Z,3.00
2022-08-26T15:01:31.080Z,3.40
2022-08-26T15:05:34.027Z,3.42
2022-08-26T15:09:37.625Z,2.85
2022-08-26T15:13:39.647Z,21.65
2022-08-26T15:17:41.965Z,13.82
2022-08-26T15:21:45.714Z,8.60
2022-08-26T15:25:48.221Z,11.95
2022-08-26T15:29:50.666Z,9.75
2022-08-26T15:33:52.669Z,9.05
2022-08-26T15:37:54.629Z,11.70
2022-08-26T15:41:56.576Z,5.45
2022-08-26T15:45:59.015Z,5.88
2022-08-26T15:50:00.937Z,6.28
2022-08-26T15:54:04.008Z,6.30
2022-08-26T15:58:07.251Z,6.28
2022-08-26T16:02:10.718Z,6.88
2022-08-26T16:06:15.658Z,11.15
2022-08-26T16:10:18.689Z,5.05
2022-08-26T16:14:20.987Z,4.22
2022-08-26T16:18:23.665Z,3.92
2022-08-26T16:22:28.513Z,4.97
2022-08-26T16:26:33.372Z,4.80
2022-08-26T16:30:35.289Z,3.85
2022-08-26T16:34:37.205Z,5.10
2022-08-26T16:38:56.381Z,6.28
2022-08-26T16:42:58.381Z,7.47
2022-08-26T16:47:00.423Z,4.80
2022-08-26T16:51:02.419Z,4.38
2022-08-26T16:55:06.365Z,3.72
2022-08-26T16:59:11.571Z,6.85
2022-08-26T17:03:13.877Z,5.53
2022-08-26T17:07:15.930Z,8.05
2022-08-26T17:11:17.878Z,6.90
2022-08-26T17:15:20.093Z,4.47
2022-08-26T17:19:22.044Z,7.07
2022-08-26T17:23:24.240Z,5.68
2022-08-26T17:27:26.839Z,7.47
2022-08-26T17:31:28.802Z,6.88
2022-08-26T17:35:31.114Z,8.57
2022-08-26T17:39:33.064Z,4.38
2022-08-26T17:43:35.194Z,3.78
2022-08-26T17:47:38.181Z,4.35
2022-08-26T17:51:41.071Z,4.30
2022-08-26T17:55:45.147Z,4.93
2022-08-26T17:59:47.155Z,2.08
2022-08-26T18:03:50.381Z,5.20
2022-08-26T18:07:52.423Z,2.60
2022-08-26T18:11:54.315Z,2.88
2022-08-26T18:15:56.318Z,2.53
2022-08-26T18:19:59.059Z,4.30
2022-08-26T18:24:01.030Z,5.22
2022-08-26T18:28:03.063Z,3.95
2022-08-26T18:32:05.099Z,3.47
2022-08-26T18:36:07.184Z,3.53
2022-08-26T18:40:11.853Z,3.95
2022-08-26T18:44:15.214Z,5.38
2022-08-26T18:48:17.158Z,3.10
2022-08-26T18:52:19.168Z,3.55
2022-08-26T18:56:21.458Z,5.78
2022-08-26T19:00:23.949Z,11.63
2022-08-26T19:04:26.247Z,5.57
2022-08-26T19:08:28.157Z,4.47
2022-08-26T19:12:30.086Z,7.90
2022-08-26T19:16:35.457Z,6.78
2022-08-26T19:20:46.764Z,6.47
2022-08-26T19:24:48.816Z,5.40
2022-08-26T19:28:51.118Z,3.38
2022-08-26T19:32:52.982Z,2.70
2022-08-26T19:36:56.953Z,3.00
2022-08-26T19:40:58.909Z,3.10
2022-08-26T19:45:20.225Z,3.42
2022-08-26T19:49:27.281Z,3.05
2022-08-26T19:53:29.129Z,3.30
2022-08-26T19:57:31.185Z,2.22
2022-08-26T20:01:33.149Z,1.70
2022-08-26T20:05:35.284Z,2.15
2022-08-26T20:09:37.458Z,2.45
2022-08-26T20:13:40.048Z,1.80
2022-08-26T20:17:41.970Z,1.90
2022-08-26T20:21:44.037Z,1.60
2022-08-26T20:25:46.703Z,6.88
2022-08-26T20:29:48.614Z,1.90
2022-08-26T20:33:51.691Z,2.92
2022-08-26T20:37:53.601Z,1.65
2022-08-26T20:41:56.999Z,2.13
2022-08-26T20:45:59.705Z,1.30
2022-08-26T20:50:02.605Z,2.33
2022-08-26T20:54:07.069Z,2.70
2022-08-26T20:58:09.100Z,3.35
2022-08-26T21:02:11.146Z,2.70
2022-08-26T21:06:13.532Z,2.90
2022-08-26T21:10:15.451Z,4.45
2022-08-26T21:14:19.119Z,1.70
2022-08-26T21:18:21.004Z,3.45
2022-08-26T21:22:23.617Z,3.10
2022-08-26T21:26:26.236Z,2.55
2022-08-26T21:30:28.296Z,2.00
2022-08-26T21:34:30.247Z,3.17
2022-08-26T21:38:33.155Z,3.42
2022-08-26T21:42:35.727Z,2.35
2022-08-26T21:46:37.733Z,3.92
2022-08-26T21:50:40.009Z,8.95
2022-08-26T21:54:42.069Z,14.57
2022-08-26T21:58:52.365Z,8.50
2022-08-26T22:02:54.502Z,6.00
2022-08-26T22:06:59.743Z,9.25
2022-08-26T22:11:02.934Z,5.70
2022-08-26T22:15:05.792Z,6.35
2022-08-26T22:19:08.063Z,3.60
2022-08-26T22:23:15.393Z,4.28
2022-08-26T22:27:17.393Z,5.60
2022-08-26T22:31:19.348Z,5.18
2022-08-26T22:35:30.559Z,2.50
2022-08-26T22:39:32.625Z,3.33
2022-08-26T22:43:34.610Z,2.22
2022-08-26T22:47:37.351Z,2.00
2022-08-26T22:51:40.079Z,2.45
2022-08-26T22:55:43.524Z,6.00
2022-08-26T22:59:45.851Z,2.50
2022-08-26T23:03:47.838Z,2.40
2022-08-26T23:07:50.035Z,2.85
2022-08-26T23:11:52.097Z,3.63
2022-08-26T23:16:06.050Z,3.60
2022-08-26T23:20:11.573Z,4.70
2022-08-26T23:24:14.414Z,3.80
2022-08-26T23:28:16.850Z,3.03
2022-08-26T23:32:19.141Z,2.20
2022-08-26T23:36:22.715Z,1.85
2022-08-26T23:40:32.325Z,2.33
2022-08-26T23:44:35.067Z,2.35
2022-08-26T23:48:37.612Z,2.20
2022-08-26T23:52:58.575Z,2.10
2022-08-26T23:57:00.549Z,1.75
